Time;durP1;ratioP1;P1;durP2;ratioP2;P2;SDS_P1;SDS_P2;PMS_P1;PMS_P2;Temp;Humidity;BMP_temperature;BMP_pressure;BME280_temperature;BME280_humidity;BME280_pressure;Samples;Min_cycle;Max_cycle;Signal;HPM_P1;HPM_P2
2022/05/07 00:04:51;;;;;;;34.13;19.15;;;;;;;7.78;92.02;102146.09;10421851;28;20040;-77
2022/05/07 00:09:52;;;;;;;36.92;21.35;;;;;;;7.81;93.42;102143.75;10433947;28;20460;-77
2022/05/07 00:14:52;;;;;;;36.72;25.25;;;;;;;7.83;92.81;102147.38;10455247;28;20119;-77
2022/05/07 00:19:53;;;;;;;40.72;25.48;;;;;;;7.82;92.91;102136.84;10451977;28;20372;-77
2022/05/07 00:24:53;;;;;;;36.20;23.50;;;;;;;7.74;93.25;102133.63;10455189;28;20036;-77
2022/05/07 00:29:54;;;;;;;32.97;21.13;;;;;;;7.63;92.97;102133.66;10435714;28;20116;-77
2022/05/07 00:34:54;;;;;;;41.90;26.90;;;;;;;7.49;92.93;102134.25;10435720;28;20138;-77
2022/05/07 00:39:55;;;;;;;43.42;30.35;;;;;;;7.46;93.35;102126.19;10453818;28;20055;-77
2022/05/07 00:44:55;;;;;;;38.42;27.23;;;;;;;7.57;93.94;102120.16;10454434;28;20032;-77
2022/05/07 00:51:33;;;;;;;38.75;25.20;;;;;;;7.59;93.87;102107.25;10453320;28;20064;-77
2022/05/07 00:55:22;;;;;;;43.08;27.55;;;;;;;7.57;94.46;102108.84;10439795;28;20072;-77
2022/05/07 01:00:23;;;;;;;45.42;30.55;;;;;;;7.62;95.16;102102.28;10412703;28;20039;-77
2022/05/07 01:05:24;;;;;;;41.67;32.78;;;;;;;7.64;94.22;102112.03;10424382;28;20507;-77
2022/05/07 01:10:24;;;;;;;49.28;28.27;;;;;;;7.57;94.33;102107.13;10442555;28;20037;-77
2022/05/07 01:15:25;;;;;;;46.75;31.88;;;;;;;7.48;94.05;102106.38;10462570;28;20086;-77
2022/05/07 01:20:29;;;;;;;53.33;32.13;;;;;;;7.42;94.35;102113.72;10414219;28;20652;-77
2022/05/07 01:25:29;;;;;;;46.08;31.52;;;;;;;7.31;94.80;102111.16;10420582;28;20034;-77
2022/05/07 01:30:30;;;;;;;46.13;29.85;;;;;;;7.26;94.74;102103.78;10429506;28;20025;-77
2022/05/07 01:35:31;;;;;;;52.42;34.33;;;;;;;7.31;95.35;102100.72;10410378;28;20071;-77
2022/05/07 01:40:31;;;;;;;45.95;31.70;;;;;;;7.24;94.49;102105.34;10442011;28;20029;-76
2022/05/07 01:45:32;;;;;;;54.15;32.90;;;;;;;7.23;95.01;102101.81;10460928;28;20085;-77
2022/05/07 01:50:33;;;;;;;50.30;33.35;;;;;;;7.18;95.43;102098.84;10459886;28;20037;-77
2022/05/07 01:55:36;;;;;;;48.67;32.85;;;;;;;7.25;96.09;102094.13;10441912;28;20028;-76
2022/05/07 02:00:42;;;;;;;49.03;32.83;;;;;;;7.36;96.11;102090.72;10458682;28;20041;-76
2022/05/07 02:05:43;;;;;;;44.42;32.83;;;;;;;7.44;96.01;102086.09;10460275;28;20473;-77
2022/05/07 02:10:45;;;;;;;47.25;31.23;;;;;;;7.44;95.65;102088.69;10459472;28;20041;-77
2022/05/07 02:15:46;;;;;;;50.97;32.42;;;;;;;7.38;95.68;102096.94;10441814;28;20111;-76
2022/05/07 02:20:47;;;;;;;45.60;31.30;;;;;;;7.31;95.29;102095.53;10439952;28;20021;-77
2022/05/07 02:25:47;;;;;;;52.53;32.63;;;;;;;7.26;95.37;102104.66;10459858;28;20469;-77
2022/05/07 02:30:48;;;;;;;41.97;28.77;;;;;;;7.24;95.19;102098.41;10433514;28;20079;-77
2022/05/07 02:35:48;;;;;;;46.17;31.25;;;;;;;7.10;94.69;102096.38;10457550;28;20075;-76
2022/05/07 02:46:10;;;;;;;50.10;33.42;;;;;;;7.13;95.59;102081.94;10459115;28;20036;-77
2022/05/07 02:51:12;;;;;;;49.13;32.05;;;;;;;7.18;96.39;102087.50;10438661;28;20055;-76
2022/05/07 02:56:12;;;;;;;54.92;33.75;;;;;;;7.18;96.93;102082.31;10421750;28;20032;-76
2022/05/07 03:01:13;;;;;;;58.20;35.38;;;;;;;7.25;96.57;102088.94;10456050;28;20530;-76
2022/05/07 03:06:13;;;;;;;48.22;31.27;;;;;;;7.34;97.06;102085.34;10456068;28;20075;-76
2022/05/07 03:11:14;;;;;;;50.55;32.40;;;;;;;7.35;96.62;102088.88;10456991;28;20366;-76
2022/05/07 03:16:15;;;;;;;60.58;32.15;;;;;;;7.36;96.63;102082.88;10437955;28;20072;-76
2022/05/07 03:21:15;;;;;;;44.63;30.77;;;;;;;7.35;96.49;102076.75;10438993;28;20064;-76
2022/05/07 03:26:17;;;;;;;48.25;31.30;;;;;;;7.30;96.81;102082.41;10439138;28;20063;-76
2022/05/07 03:31:19;;;;;;;49.47;30.93;;;;;;;7.24;96.77;102077.59;10436051;28;20427;-76
2022/05/07 03:36:19;;;;;;;;;;;;;;;7.13;96.31;102081.03;10423751;28;20040;-76
2022/05/07 03:41:20;;;;;;;50.42;30.38;;;;;;;7.05;96.73;102080.41;10436409;28;19939;-76
2022/05/07 03:46:21;;;;;;;46.72;30.40;;;;;;;6.99;96.93;102079.91;10453184;28;20060;-75
2022/05/07 03:51:22;;;;;;;48.22;32.78;;;;;;;6.96;96.96;102084.88;10436024;28;20053;-76
2022/05/07 03:56:22;;;;;;;54.28;33.85;;;;;;;6.96;96.97;102085.75;10416140;28;20471;-75
2022/05/07 04:01:23;;;;;;;54.53;35.05;;;;;;;7.01;97.38;102089.66;10449756;28;20049;-76
2022/05/07 04:06:23;;;;;;;55.78;32.33;;;;;;;7.08;97.21;102082.34;10411598;28;20051;-75
2022/05/07 04:11:24;;;;;;;51.60;30.65;;;;;;;7.26;98.27;102081.22;10427433;28;20100;-75
2022/05/07 04:16:24;;;;;;;53.97;31.38;;;;;;;7.40;97.93;102086.63;10425734;28;20049;-75
2022/05/07 04:21:25;;;;;;;51.45;35.05;;;;;;;7.52;98.47;102087.63;10449172;28;20052;-75
2022/05/07 04:26:25;;;;;;;48.60;32.90;;;;;;;7.67;98.29;102089.63;10409119;28;20073;-76
2022/05/07 04:31:26;;;;;;;53.30;31.42;;;;;;;7.81;98.58;102094.22;10429737;28;20044;-76
2022/05/07 04:36:26;;;;;;;49.40;30.40;;;;;;;7.98;98.78;102089.41;10409735;28;20091;-76
2022/05/07 04:41:27;;;;;;;40.67;26.40;;;;;;;8.17;98.92;102096.97;10441695;28;20021;-75
2022/05/07 04:46:27;;;;;;;50.67;33.80;;;;;;;8.38;99.09;102088.19;10402825;28;20477;-74
2022/05/07 04:51:29;;;;;;;41.35;29.38;;;;;;;8.57;98.65;102091.31;10445839;28;20057;-74
2022/05/07 04:56:29;;;;;;;52.28;26.92;;;;;;;8.69;97.76;102096.56;10433562;28;20041;-73
2022/05/07 05:01:32;;;;;;;36.17;25.40;;;;;;;8.80;97.51;102099.16;10440896;28;20037;-73
2022/05/07 05:06:33;;;;;;;31.05;21.92;;;;;;;8.99;96.06;102095.31;10395494;28;20120;-75
2022/05/07 05:11:34;;;;;;;34.30;21.20;;;;;;;9.19;95.50;102095.84;10446227;28;20040;-74
2022/05/07 05:16:34;;;;;;;30.00;23.77;;;;;;;9.34;94.49;102101.31;10484755;28;20045;-74
2022/05/07 05:21:35;;;;;;;33.55;21.20;;;;;;;9.47;93.99;102104.00;10466838;28;20036;-74
2022/05/07 05:26:35;;;;;;;32.72;22.90;;;;;;;9.70;93.18;102112.59;10479951;28;20064;-74
2022/05/07 05:31:36;;;;;;;34.50;20.08;;;;;;;9.84;92.94;102106.63;10486505;28;20032;-74
2022/05/07 05:36:36;;;;;;;28.20;22.20;;;;;;;9.98;92.12;102117.16;10465159;28;20485;-74
2022/05/07 05:41:41;;;;;;;29.83;19.02;;;;;;;10.17;91.55;102119.31;10485084;28;20166;-74
2022/05/07 05:46:41;;;;;;;28.08;20.63;;;;;;;10.37;91.57;102120.72;10500573;28;20463;-75
2022/05/07 05:51:42;;;;;;;29.63;17.58;;;;;;;10.60;91.07;102126.63;10499882;28;20111;-74
2022/05/07 05:56:42;;;;;;;29.58;20.10;;;;;;;10.81;90.24;102121.03;10478917;28;20445;-74
2022/05/07 06:01:43;;;;;;;29.92;19.58;;;;;;;11.06;90.18;102138.38;10497541;28;20068;-74
2022/05/07 06:06:43;;;;;;;24.65;17.92;;;;;;;11.27;87.40;102124.06;10498551;28;20029;-74
2022/05/07 06:11:44;;;;;;;23.70;16.05;;;;;;;11.54;86.94;102131.88;10465266;28;20481;-74
2022/05/07 06:16:44;;;;;;;21.48;15.18;;;;;;;11.82;83.58;102135.34;10458837;28;20060;-74
2022/05/07 06:21:45;;;;;;;22.40;14.50;;;;;;;12.06;84.10;102137.72;10456534;28;20113;-74
2022/05/07 06:32:05;;;;;;;27.08;18.10;;;;;;;12.98;78.16;102138.81;10444071;28;20116;-75
2022/05/07 06:37:05;;;;;;;20.50;14.35;;;;;;;13.77;71.94;102138.00;10457118;28;20101;-75
2022/05/07 06:42:06;;;;;;;22.42;14.85;;;;;;;14.59;70.63;102136.16;10456866;28;20029;-74
2022/05/07 06:47:07;;;;;;;21.58;14.50;;;;;;;15.51;65.53;102144.22;10453237;28;20079;-74
2022/05/07 06:52:07;;;;;;;22.55;15.63;;;;;;;16.10;64.41;102142.56;10435823;28;20491;-74
2022/05/07 06:57:08;;;;;;;22.60;15.18;;;;;;;17.02;58.97;102135.97;10451623;28;20052;-76
2022/05/07 07:02:09;;;;;;;27.58;17.65;;;;;;;17.32;58.52;102138.06;10456681;28;20041;-75
2022/05/07 07:07:09;;;;;;;20.80;16.15;;;;;;;18.03;57.95;102142.53;10456857;28;20037;-75
2022/05/07 07:12:10;;;;;;;23.02;15.13;;;;;;;18.20;55.95;102143.19;10490506;28;20480;-74
2022/05/07 07:17:10;;;;;;;23.47;18.17;;;;;;;19.13;54.58;102148.13;10497405;28;20037;-74
2022/05/07 07:22:12;;;;;;;22.20;15.83;;;;;;;20.09;51.02;102137.81;10498672;28;20075;-74
2022/05/07 07:27:12;;;;;;;29.40;19.77;;;;;;;20.16;51.51;102145.09;10497529;28;20032;-75
2022/05/07 07:32:13;;;;;;;23.83;17.70;;;;;;;20.34;51.04;102146.47;10498092;28;20036;-74
2022/05/07 07:37:13;;;;;;;31.13;17.47;;;;;;;21.23;48.46;102142.56;10497500;28;20048;-74
2022/05/07 07:42:16;;;;;;;21.63;18.40;;;;;;;21.80;47.76;102147.41;10498274;28;20059;-75
2022/05/07 07:52:35;;;;;;;27.15;22.60;;;;;;;21.96;48.95;102144.19;10495148;28;20476;-76
2022/05/07 07:57:36;;;;;;;32.73;21.23;;;;;;;22.48;46.14;102137.22;10497174;28;20064;-77
2022/05/07 08:02:46;;;;;;;23.13;17.63;;;;;;;23.74;44.48;102137.44;10496426;28;20056;-78
2022/05/07 08:13:06;;;;;;;29.40;21.73;;;;;;;24.18;44.37;102141.56;10496367;28;20040;-75
2022/05/07 08:18:06;;;;;;;27.30;22.07;;;;;;;24.46;40.93;102132.06;10496546;28;20032;-74
2022/05/07 08:23:10;;;;;;;28.23;22.33;;;;;;;23.69;44.04;102147.19;10497170;28;20364;-73
2022/05/07 08:28:11;;;;;;;31.30;23.80;;;;;;;25.92;39.38;102138.44;10495117;28;20028;-75
2022/05/07 08:33:11;;;;;;;29.27;23.03;;;;;;;26.36;38.24;102136.81;10493671;28;20479;-74
2022/05/07 08:38:12;;;;;;;27.97;24.10;;;;;;;26.57;37.99;102136.84;10490413;28;20048;-74
2022/05/07 08:43:14;;;;;;;29.23;23.23;;;;;;;27.06;36.35;102147.63;10490816;28;20441;-75
2022/05/07 08:48:15;;;;;;;27.45;21.38;;;;;;;27.41;34.02;102149.34;10489649;28;20036;-74
2022/05/07 08:53:15;;;;;;;24.35;21.15;;;;;;;27.73;36.64;102141.22;10492790;28;20028;-74
2022/05/07 08:58:16;;;;;;;25.80;21.53;;;;;;;28.47;33.28;102138.13;10478471;28;20068;-74
2022/05/07 09:03:17;;;;;;;22.73;19.97;;;;;;;28.20;36.46;102137.41;10494233;28;20048;-75
2022/05/07 09:08:23;;;;;;;23.52;20.02;;;;;;;29.34;32.14;102134.69;10457072;28;20101;-74
2022/05/07 09:13:23;;;;;;;26.55;19.88;;;;;;;29.13;32.24;102125.91;10421118;28;20061;-74
2022/05/07 09:18:25;;;;;;;28.40;21.87;;;;;;;28.85;33.91;102125.28;10439712;28;20072;-74
2022/05/07 09:23:25;;;;;;;24.75;21.77;;;;;;;28.71;32.30;102130.78;10444922;28;20290;-75
2022/05/07 09:28:28;;;;;;;26.17;21.33;;;;;;;28.69;34.36;102124.50;10460978;28;20511;-75
2022/05/07 09:33:33;;;;;;;26.73;22.10;;;;;;;29.60;31.16;102120.03;10428647;28;20467;-74
2022/05/07 09:38:34;;;;;;;25.73;21.05;;;;;;;29.22;33.16;102122.22;10427098;28;20055;-75
2022/05/07 09:43:34;;;;;;;28.07;21.33;;;;;;;28.52;33.88;102124.63;10461470;28;20554;-74
2022/05/07 09:48:36;;;;;;;28.03;20.50;;;;;;;28.90;31.73;102119.88;10442342;28;20110;-75
2022/05/07 09:58:56;;;;;;;27.05;21.95;;;;;;;28.21;36.76;102114.06;10445185;28;20041;-74
2022/05/07 10:04:12;;;;;;;21.80;18.97;;;;;;;29.23;32.78;102123.13;10442395;28;20538;-75
2022/05/07 10:09:32;;;;;;;22.65;17.15;;;;;;;29.61;31.58;102113.72;10460747;28;20052;-74
2022/05/07 10:14:32;;;;;;;20.70;17.05;;;;;;;29.34;32.82;102113.13;10442209;28;20044;-74
2022/05/07 10:19:39;;;;;;;21.27;16.80;;;;;;;29.43;32.54;102110.34;10460210;28;20035;-75
2022/05/07 10:24:39;;;;;;;19.98;16.42;;;;;;;29.53;30.46;102104.84;10426255;28;20384;-74
2022/05/07 10:29:40;;;;;;;17.13;13.20;;;;;;;28.98;33.52;102101.81;10440170;28;20039;-74
2022/05/07 10:34:49;;;;;;;24.03;16.80;;;;;;;29.36;31.51;102092.41;10457359;28;20064;-74
2022/05/07 10:39:52;;;;;;;19.60;15.00;;;;;;;31.11;29.43;102097.03;10424799;28;20033;-75
2022/05/07 10:44:53;;;;;;;20.77;16.17;;;;;;;31.39;29.36;102090.19;10425003;28;20040;-74
2022/05/07 10:49:54;;;;;;;20.43;14.27;;;;;;;31.15;27.39;102087.03;10458863;28;20057;-74
2022/05/07 10:55:08;;;;;;;15.23;11.82;;;;;;;30.90;28.39;102085.69;10458945;28;20422;-75
2022/05/07 11:00:19;;;;;;;17.10;11.90;;;;;;;30.11;28.80;102078.88;10441061;28;20029;-74
2022/05/07 11:05:31;;;;;;;15.25;13.07;;;;;;;29.98;31.59;102082.63;10425020;28;20475;-75
2022/05/07 11:10:32;;;;;;;13.82;11.48;;;;;;;29.85;26.82;102080.13;10439812;28;20102;-75
2022/05/07 11:15:32;;;;;;;15.00;11.13;;;;;;;28.73;32.63;102083.16;10457693;28;20052;-75
2022/05/07 11:20:35;;;;;;;18.13;12.17;;;;;;;27.73;31.01;102077.53;10440342;28;20109;-74
2022/05/07 11:25:35;;;;;;;15.07;12.73;;;;;;;29.20;28.39;102070.13;10457460;28;20037;-74
2022/05/07 11:30:36;;;;;;;18.77;12.57;;;;;;;28.67;31.40;102067.06;10422569;28;20516;-75
2022/05/07 11:35:41;;;;;;;12.53;9.17;;;;;;;29.59;31.25;102065.19;10456971;28;20032;-75
2022/05/07 11:40:42;;;;;;;18.80;10.88;;;;;;;30.01;29.08;102061.94;10456490;28;20032;-75
2022/05/07 11:45:42;;;;;;;15.27;10.07;;;;;;;28.96;29.68;102060.53;10456293;28;20061;-75
2022/05/07 11:50:52;;;;;;;11.97;7.40;;;;;;;27.92;29.07;102062.22;10438266;28;20486;-75
2022/05/07 11:56:08;;;;;;;12.07;9.93;;;;;;;28.71;28.30;102050.84;10438507;28;20037;-74
2022/05/07 12:01:27;;;;;;;12.52;9.52;;;;;;;26.80;34.09;102067.94;10423185;28;20468;-75
2022/05/07 12:06:30;;;;;;;12.75;8.30;;;;;;;27.40;31.70;102047.19;10437817;28;20090;-75
2022/05/07 12:11:31;;;;;;;16.77;9.93;;;;;;;27.07;33.30;102051.78;10456449;28;20037;-74
2022/05/07 12:32:48;;;;;;;13.57;9.85;;;;;;;23.56;37.69;102032.13;10494409;28;20028;-75
2022/05/07 12:37:49;;;;;;;12.82;9.85;;;;;;;22.34;42.72;102036.50;10494838;28;20494;-74
2022/05/07 12:42:49;;;;;;;19.20;11.60;;;;;;;21.72;41.18;102038.03;10494077;28;20056;-75
2022/05/07 12:47:50;;;;;;;14.33;10.33;;;;;;;21.31;44.34;102033.56;10476202;28;20072;-74
2022/05/07 12:52:50;;;;;;;14.97;9.40;;;;;;;20.97;45.44;102041.72;10493034;28;20476;-74
2022/05/07 12:57:51;;;;;;;14.67;10.97;;;;;;;20.71;50.05;102038.41;10494866;28;20039;-76
2022/05/07 13:02:53;;;;;;;13.27;8.47;;;;;;;20.63;54.04;102043.53;10492599;28;20049;-76
2022/05/07 13:07:53;;;;;;;11.63;7.75;;;;;;;20.40;60.02;102042.94;10451374;28;1153829;-76
2022/05/07 13:12:54;;;;;;;13.40;8.88;;;;;;;20.47;58.23;102026.28;10454172;28;20452;-76
2022/05/07 13:17:56;;;;;;;21.57;8.20;;;;;;;23.20;46.54;102019.13;10435751;28;20033;-76
2022/05/07 13:22:57;;;;;;;11.02;7.53;;;;;;;27.07;32.75;102011.50;10453224;28;20078;-75
2022/05/07 13:27:57;;;;;;;14.63;11.47;;;;;;;30.18;30.52;102004.09;10434404;28;20467;-76
2022/05/07 13:32:58;;;;;;;16.63;13.63;;;;;;;31.32;27.93;101997.50;10454047;28;20033;-75
2022/05/07 13:37:58;;;;;;;15.53;12.40;;;;;;;29.39;26.38;101991.75;10435344;28;20499;-75
2022/05/07 13:43:01;;;;;;;12.67;9.17;;;;;;;28.21;31.84;101991.19;10453337;28;20064;-76
2022/05/07 13:48:02;;;;;;;14.07;11.73;;;;;;;28.62;32.19;101988.13;10436143;28;20083;-76
2022/05/07 13:53:02;;;;;;;17.13;11.27;;;;;;;26.99;33.08;101997.19;10435313;28;20029;-73
2022/05/07 13:58:04;;;;;;;11.67;9.80;;;;;;;26.88;30.26;101990.06;10435115;28;20075;-73
2022/05/07 14:03:04;;;;;;;13.20;9.05;;;;;;;25.36;34.19;101993.47;10454439;28;20048;-73
2022/05/07 14:08:05;;;;;;;17.07;8.90;;;;;;;24.38;37.71;101997.31;10460739;28;20053;-75
2022/05/07 14:13:06;;;;;;;14.50;9.70;;;;;;;27.11;32.07;101998.06;10423989;28;20056;-75
2022/05/07 14:18:06;;;;;;;11.53;9.13;;;;;;;28.27;29.45;101982.16;10459335;28;20500;-76
2022/05/07 14:23:11;;;;;;;9.03;7.63;;;;;;;26.93;30.17;101976.63;10459613;28;20032;-77
2022/05/07 14:28:12;;;;;;;7.28;4.93;;;;;;;26.03;32.14;101971.31;10441698;28;20287;-77
2022/05/07 14:33:12;;;;;;;5.67;3.77;;;;;;;28.70;28.43;101968.25;10459203;28;20057;-76
2022/05/07 14:38:13;;;;;;;30.70;11.43;;;;;;;26.24;37.13;102003.53;10458959;28;20519;-76
2022/05/07 14:43:14;;;;;;;16.40;9.90;;;;;;;21.66;46.06;102025.47;10441760;28;20472;-76
2022/05/07 14:48:15;;;;;;;15.17;8.00;;;;;;;20.27;50.80;102027.53;10424454;28;20108;-76
2022/05/07 14:53:16;;;;;;;15.90;7.60;;;;;;;20.37;50.49;102038.47;10440797;28;20488;-76
2022/05/07 14:58:17;;;;;;;10.30;7.22;;;;;;;20.87;50.21;102039.72;10424502;28;20120;-77
2022/05/07 15:03:17;;;;;;;15.65;7.70;;;;;;;21.07;49.28;102040.16;10440246;28;20104;-76
2022/05/07 15:13:45;;;;;;;11.27;7.43;;;;;;;20.70;51.03;102049.91;10427928;28;20559;-75
2022/05/07 15:18:46;;;;;;;14.97;8.47;;;;;;;20.06;53.21;102050.94;10447710;28;20026;-75
2022/05/07 15:23:49;;;;;;;16.33;8.80;;;;;;;19.42;55.01;102064.13;10403386;28;20389;-74
2022/05/07 15:28:49;;;;;;;15.68;9.38;;;;;;;18.96;57.15;102076.81;10454337;28;20040;-74
2022/05/07 15:39:09;;;;;;;15.25;11.43;;;;;;;17.95;60.77;102091.91;10441396;28;20028;-75
2022/05/07 15:44:09;;;;;;;13.57;9.82;;;;;;;17.72;62.40;102093.69;10450621;28;20041;-74
2022/05/07 15:49:10;;;;;;;14.20;10.13;;;;;;;17.61;62.25;102095.94;10401192;28;20080;-75
2022/05/07 15:54:11;;;;;;;16.48;11.43;;;;;;;17.49;62.98;102100.78;10396650;28;20477;-75
2022/05/07 15:59:13;;;;;;;16.65;12.35;;;;;;;17.73;61.87;102100.78;10420430;28;20036;-76
2022/05/07 16:04:17;;;;;;;20.52;12.30;;;;;;;17.95;61.49;102091.91;10375879;28;20481;-76
2022/05/07 16:09:18;;;;;;;14.57;10.82;;;;;;;17.88;62.08;102101.38;10437779;28;20044;-75
2022/05/07 16:14:19;;;;;;;16.42;10.38;;;;;;;17.64;63.74;102092.50;10441363;28;20029;-74
2022/05/07 16:19:20;;;;;;;15.00;10.82;;;;;;;17.45;64.69;102087.41;10419340;28;20041;-75
2022/05/07 16:29:42;;;;;;;22.50;13.32;;;;;;;17.23;66.28;102084.78;10454222;28;20028;-74
2022/05/07 16:34:43;;;;;;;21.73;13.93;;;;;;;17.12;66.96;102090.53;10445784;28;20106;-74
2022/05/07 16:39:45;;;;;;;22.98;14.40;;;;;;;17.08;67.86;102090.34;10453352;28;20468;-74
2022/05/07 16:44:45;;;;;;;21.58;14.85;;;;;;;17.07;67.33;102102.69;10423172;28;20048;-75
2022/05/07 16:49:46;;;;;;;23.55;15.27;;;;;;;17.03;68.53;102106.94;10435510;28;20377;-74
2022/05/07 16:54:46;;;;;;;20.83;13.85;;;;;;;16.94;68.52;102098.59;10449212;28;20087;-74
2022/05/07 16:59:47;;;;;;;22.63;16.00;;;;;;;16.80;69.75;102098.03;10448289;28;20120;-77
2022/05/07 17:04:48;;;;;;;24.05;18.48;;;;;;;16.82;68.89;102101.63;10412987;28;20040;-77
2022/05/07 17:09:48;;;;;;;22.60;16.75;;;;;;;16.90;69.28;102096.66;10448902;28;20099;-75
2022/05/07 17:14:49;;;;;;;30.70;19.30;;;;;;;17.03;69.83;102092.81;10424118;28;20090;-76
2022/05/07 17:19:51;;;;;;;21.25;16.20;;;;;;;17.12;69.04;102102.84;10451494;28;20033;-77
2022/05/07 17:24:51;;;;;;;17.67;13.18;;;;;;;17.16;68.23;102092.47;10436377;28;20029;-74
2022/05/07 17:29:52;;;;;;;17.70;13.68;;;;;;;17.03;66.60;102096.34;10418171;28;20120;-75
2022/05/07 17:34:52;;;;;;;15.00;12.02;;;;;;;16.91;67.63;102114.31;10452991;28;20087;-76
2022/05/07 17:39:53;;;;;;;21.55;14.23;;;;;;;16.76;68.27;102108.38;10438133;28;20032;-74
2022/05/07 17:44:53;;;;;;;16.23;10.25;;;;;;;16.56;67.20;102119.03;10443417;28;20383;-75
2022/05/07 17:49:54;;;;;;;17.92;10.05;;;;;;;16.23;68.05;102127.28;10459260;28;20865;-74
2022/05/07 17:54:54;;;;;;;14.98;9.02;;;;;;;16.14;66.63;102126.03;10442961;28;20060;-74
2022/05/07 17:59:56;;;;;;;11.55;7.88;;;;;;;15.93;67.93;102146.19;10459388;28;20137;-74
2022/05/07 18:04:57;;;;;;;11.65;8.82;;;;;;;15.70;68.25;102143.34;10458444;28;20033;-75
2022/05/07 18:09:57;;;;;;;14.48;9.27;;;;;;;15.41;69.49;102154.34;10441057;28;20068;-75
2022/05/07 18:14:57;;;;;;;10.60;7.13;;;;;;;15.24;69.95;102158.78;10460737;28;20076;-74
2022/05/07 18:19:58;;;;;;;10.35;6.75;;;;;;;15.06;70.20;102161.41;10457699;28;20060;-75
2022/05/07 18:24:58;;;;;;;7.57;5.35;;;;;;;15.04;69.23;102170.06;10459849;28;20068;-75
2022/05/07 18:29:59;;;;;;;8.85;6.35;;;;;;;14.97;68.93;102177.66;10457219;28;20106;-75
2022/05/07 18:35:01;;;;;;;9.23;6.72;;;;;;;14.94;69.46;102176.63;10457071;28;20068;-74
2022/05/07 18:45:20;;;;;;;9.30;6.45;;;;;;;14.40;71.50;102172.06;10457548;28;20032;-75
2022/05/07 18:50:21;;;;;;;11.38;7.38;;;;;;;14.10;72.99;102181.03;10422973;28;20067;-75
2022/05/07 19:00:42;;;;;;;11.30;8.05;;;;;;;13.09;76.38;102182.38;10428091;28;20033;-75
2022/05/07 19:05:51;;;;;;;11.25;6.57;;;;;;;12.65;77.46;102193.78;10422809;28;20025;-74
2022/05/07 19:10:51;;;;;;;9.18;7.13;;;;;;;12.31;78.64;102190.91;10426100;28;20041;-74
2022/05/07 19:15:52;;;;;;;9.35;7.15;;;;;;;12.06;80.18;102187.56;10437513;28;20036;-74
2022/05/07 19:20:53;;;;;;;9.68;6.53;;;;;;;11.82;80.48;102190.44;10439592;28;20029;-74
2022/05/07 19:25:54;;;;;;;14.33;9.20;;;;;;;11.59;81.11;102196.03;10396714;28;20148;-75
2022/05/07 19:31:01;;;;;;;10.52;7.78;;;;;;;11.44;82.21;102201.16;10452630;28;20115;-74
2022/05/07 19:36:04;;;;;;;12.65;8.63;;;;;;;11.47;84.83;102205.72;10437052;28;20036;-74
2022/05/07 19:41:05;;;;;;;10.65;7.07;;;;;;;11.36;85.44;102212.84;10456815;28;20491;-74
2022/05/07 19:46:05;;;;;;;13.70;8.90;;;;;;;11.13;85.58;102217.47;10456160;28;20037;-74
2022/05/07 19:51:05;;;;;;;12.63;8.00;;;;;;;10.86;85.97;102217.44;10455951;28;20060;-75
2022/05/07 19:56:06;;;;;;;12.75;9.77;;;;;;;10.67;86.66;102238.84;10436491;28;20076;-74
2022/05/07 20:01:07;;;;;;;11.38;8.90;;;;;;;10.47;87.19;102234.81;10456072;28;20494;-74
2022/05/07 20:06:08;;;;;;;16.75;10.20;;;;;;;10.30;87.90;102244.09;10450260;28;20075;-75
2022/05/07 20:11:09;;;;;;;12.77;9.73;;;;;;;10.20;88.39;102244.22;10455332;28;20052;-74
2022/05/07 20:16:11;;;;;;;18.45;12.75;;;;;;;10.17;88.99;102247.53;10432842;28;20084;-75
2022/05/07 20:26:33;;;;;;;20.57;15.23;;;;;;;10.10;90.24;102245.25;10451022;28;20547;-75
2022/05/07 20:31:34;;;;;;;20.65;14.98;;;;;;;10.08;91.50;102252.09;10428635;28;20090;-75
2022/05/07 20:36:35;;;;;;;25.95;18.20;;;;;;;10.03;92.05;102251.78;10431770;28;20039;-75
2022/05/07 20:41:37;;;;;;;27.45;18.95;;;;;;;10.09;92.01;102246.06;10433658;28;20045;-74
2022/05/07 20:46:37;;;;;;;28.07;18.80;;;;;;;10.07;92.83;102264.28;10431833;28;20033;-75
2022/05/07 20:51:39;;;;;;;18.95;15.02;;;;;;;9.90;92.38;102254.31;10403246;28;20381;-75
2022/05/07 20:56:42;;;;;;;28.03;16.83;;;;;;;9.80;92.70;102255.31;10427141;28;20084;-75
2022/05/07 21:01:48;;;;;;;26.20;19.45;;;;;;;9.65;92.99;102256.00;10447675;28;20064;-75
2022/05/07 21:06:50;;;;;;;24.85;16.55;;;;;;;9.57;93.58;102258.88;10420269;28;20540;-75
2022/05/07 21:11:50;;;;;;;32.53;22.93;;;;;;;9.46;93.85;102272.06;10465015;28;20044;-74
2022/05/07 21:16:51;;;;;;;32.08;22.05;;;;;;;9.42;94.38;102267.41;10492754;28;20131;-75
2022/05/07 21:21:51;;;;;;;29.38;21.90;;;;;;;9.31;94.31;102276.13;10500742;28;20090;-75
2022/05/07 21:26:52;;;;;;;34.10;25.02;;;;;;;9.32;94.39;102278.84;10502766;28;20544;-75
2022/05/07 21:31:52;;;;;;;38.33;26.17;;;;;;;9.30;94.97;102274.31;10466409;28;20076;-75
2022/05/07 21:36:53;;;;;;;40.95;28.15;;;;;;;9.23;94.88;102286.91;10461146;28;20116;-75
2022/05/07 21:41:53;;;;;;;38.20;25.92;;;;;;;9.22;95.37;102285.09;10456257;28;20127;-75
2022/05/07 21:46:54;;;;;;;35.05;25.17;;;;;;;9.14;94.65;102282.66;10461505;28;20480;-75
2022/05/07 21:51:55;;;;;;;37.58;27.05;;;;;;;9.05;95.71;102291.63;10461254;28;20088;-75
2022/05/07 21:56:55;;;;;;;40.65;26.73;;;;;;;8.97;95.23;102303.19;10499866;28;20028;-75
2022/05/07 22:01:56;;;;;;;40.53;28.98;;;;;;;8.93;95.80;102301.13;10498513;28;20032;-75
2022/05/07 22:06:56;;;;;;;87.80;58.33;;;;;;;9.09;96.52;102304.13;10497250;28;20097;-75
2022/05/07 22:11:57;;;;;;;102.07;66.07;;;;;;;9.15;96.89;102310.63;10498533;28;20099;-76
2022/05/07 22:16:57;;;;;;;94.50;61.58;;;;;;;9.27;97.63;102311.56;10497951;28;20051;-75
2022/05/07 22:21:59;;;;;;;95.38;60.45;;;;;;;9.51;98.19;102311.59;10499036;28;20067;-75
2022/05/07 22:27:00;;;;;;;101.03;60.10;;;;;;;9.68;98.67;102310.25;10498777;28;20464;-76
2022/05/07 22:32:01;;;;;;;95.53;57.92;;;;;;;9.91;99.25;102311.94;10496127;28;20063;-76
2022/05/07 22:37:01;;;;;;;101.78;65.30;;;;;;;10.23;99.52;102310.75;10496960;28;20482;-75
2022/05/07 22:42:02;;;;;;;99.35;62.85;;;;;;;10.37;99.13;102309.16;10496129;28;20060;-75
2022/05/07 22:47:02;;;;;;;76.85;50.58;;;;;;;10.42;98.33;102314.72;10497525;28;20024;-75
2022/05/07 22:52:03;;;;;;;69.72;45.25;;;;;;;10.38;97.97;102310.03;10494119;28;20472;-75
2022/05/07 22:57:04;;;;;;;75.90;46.38;;;;;;;10.41;97.67;102318.13;10480652;28;20090;-75
2022/05/07 23:02:04;;;;;;;62.97;42.67;;;;;;;10.51;97.81;102322.34;10496307;28;20392;-75
2022/05/07 23:07:05;;;;;;;59.60;43.10;;;;;;;10.49;96.87;102330.06;10496696;28;20036;-75
2022/05/07 23:12:05;;;;;;;54.88;36.58;;;;;;;10.40;97.11;102339.88;10480576;28;20076;-75
2022/05/07 23:17:06;;;;;;;57.72;39.60;;;;;;;10.36;96.88;102337.81;10495447;28;20114;-75
2022/05/07 23:22:07;;;;;;;50.40;35.53;;;;;;;10.35;96.93;102334.28;10476500;28;20115;-75
2022/05/07 23:27:07;;;;;;;57.15;39.25;;;;;;;10.28;96.79;102340.78;10496725;28;20177;-76
2022/05/07 23:32:08;;;;;;;50.95;36.85;;;;;;;10.18;96.96;102340.91;10495071;28;20426;-75
2022/05/07 23:37:09;;;;;;;49.10;35.80;;;;;;;9.90;96.58;102344.13;10493753;28;20044;-75
2022/05/07 23:42:09;;;;;;;53.58;34.13;;;;;;;9.64;97.07;102353.53;10494917;28;20071;-75
2022/05/07 23:47:10;;;;;;;45.55;31.15;;;;;;;9.55;97.20;102358.06;10495669;28;20037;-75
2022/05/07 23:52:12;;;;;;;35.33;27.63;;;;;;;9.45;98.00;102352.94;10497068;28;20064;-75
2022/05/07 23:57:12;;;;;;;36.70;25.20;;;;;;;9.55;97.82;102355.44;10492058;28;20032;-76
